WetterOnline ( https://www.wetteronline.de )

Wetter aktuell Casa Santa

Aktuelles Wetter: Trapani-Birgi (14m)

6-stündlich | Neueste Meldungen
Ortszeit Temperatur Wetter
Di, 16.07. 2:00 23.0° C wolkenlos
Mo, 15.07. 20:00 27.4° C wolkenlos
Mo, 15.07. 14:00 29.2° C wolkenlos
Mo, 15.07. 8:00 24.6° C wolkenlos
Mo, 15.07. 2:00 25.0° C wolkenlos
So, 14.07. 20:00 28.0° C wolkenlos
So, 14.07. 14:00 31.0° C leicht bewölkt
So, 14.07. 8:00 22.4° C leicht bewölkt
Ortszeit Temperatur Wetter
Di, 16.07. 7:00 20.0° C fast wolkenlos
Di, 16.07. 6:00 20.2° C fast wolkenlos
Di, 16.07. 5:00 23.0° C leicht bewölkt
Di, 16.07. 4:00 21.0° C leicht bewölkt
Di, 16.07. 3:00 23.0° C wolkenlos
Di, 16.07. 2:00 23.0° C wolkenlos
Di, 16.07. 1:00 23.0° C wolkenlos
Ortszeit Relative Feuchte Sichtweite
Di, 16.07. 2:00 92% 12 km
Mo, 15.07. 20:00 88% 18 km
Mo, 15.07. 14:00 82% 22 km
Mo, 15.07. 8:00 86% 16 km
Mo, 15.07. 2:00 91% 10 km
So, 14.07. 20:00 79% 14 km
So, 14.07. 14:00 45% 25 km
So, 14.07. 8:00 78% 12 km
Ortszeit Relative Feuchte Sichtweite
Di, 16.07. 7:00 90% 10 km
Di, 16.07. 6:00 90% 9 km
Di, 16.07. 5:00 98% 8 km
Di, 16.07. 4:00 98% 7 km
Di, 16.07. 3:00 95% 12 km
Di, 16.07. 2:00 92% 12 km
Di, 16.07. 1:00 95% 12 km
Ortszeit Niederschlagsmenge Niederschlagsart
Di, 16.07. 2:00 0.0 l/m2 in 6 Std. -
Mo, 15.07. 20:00 0.0 l/m2 in 12 Std. -
Mo, 15.07. 14:00 0.0 l/m2 in 6 Std. -
Mo, 15.07. 8:00 0.0 l/m2 in 12 Std. -
Mo, 15.07. 2:00 0.0 l/m2 in 6 Std. -
So, 14.07. 20:00 0.0 l/m2 in 12 Std. -
So, 14.07. 14:00 0.0 l/m2 in 6 Std. -
So, 14.07. 8:00 0.0 l/m2 in 12 Std. -
Ortszeit Niederschlagsmenge Niederschlagsart
Di, 16.07. 7:00 keine Meldung -
Di, 16.07. 6:00 keine Meldung -
Di, 16.07. 5:00 keine Meldung -
Di, 16.07. 4:00 keine Meldung -
Di, 16.07. 3:00 keine Meldung -
Di, 16.07. 2:00 keine Meldung -
Di, 16.07. 1:00 keine Meldung -
Ortszeit Stärke Spitze Richtung
km/h Bft. km/h Grad Sektor
Di, 16.07. 2:00 7 2 - 340° N
Mo, 15.07. 20:00 22 4 - 340° N
Mo, 15.07. 14:00 24 4 - 340° N
Mo, 15.07. 8:00 2 1 - 300° NW
Mo, 15.07. 2:00 6 1 - 50° NO
So, 14.07. 20:00 17 3 - 340° N
So, 14.07. 14:00 11 2 - 270° W
So, 14.07. 8:00 4 1 - 130° SO
Ortszeit Stärke Spitze Richtung
km/h Bft. km/h Grad Sektor
Di, 16.07. 7:00 4 1 - 90° O
Di, 16.07. 6:00 4 1 - 110° O
Di, 16.07. 5:00 9 2 - 350° N
Di, 16.07. 4:00 6 1 - 360° N
Di, 16.07. 3:00 9 2 - 360° N
Di, 16.07. 2:00 7 2 - 340° N
Di, 16.07. 1:00 11 2 - 310° NW
Ortszeit Untergrenze Bedeckung Gattung
total tief tief mittel hoch
Di, 16.07. 2:00 - 0/8 0/8 - - -
Mo, 15.07. 20:00 - 0/8 0/8 - - -
Mo, 15.07. 14:00 - 0/8 0/8 - - -
Mo, 15.07. 8:00 - 0/8 0/8 - - -
Mo, 15.07. 2:00 - 0/8 0/8 - - -
So, 14.07. 20:00 - 0/8 0/8 - - -
So, 14.07. 14:00 6000 m 3/8 3/8 - - Ci
So, 14.07. 8:00 150 m 2/8 2/8 St - -
Ortszeit Bedeckungsgrad in Achtel und Wolkenuntergrenze
Di, 16.07. 7:00 1(360m)
Di, 16.07. 6:00 1(300m)
Di, 16.07. 5:00 2(300m)
Di, 16.07. 4:00 3(150m)
Di, 16.07. 3:00 keine Wolken
Di, 16.07. 2:00 keine Wolken
Di, 16.07. 1:00 keine Wolken
Ortszeit Luftdruck NN (hPa) Tendenz (hPa in 3 Std.)
Di, 16.07. 2:00 1012 0,0
Mo, 15.07. 20:00 1012 0,0
Mo, 15.07. 14:00 1012 0,0
Mo, 15.07. 8:00 1012 + 1,0
Mo, 15.07. 2:00 1012 0,0
So, 14.07. 20:00 1012 0,0
So, 14.07. 14:00 1013 0,0
So, 14.07. 8:00 1012 + 0,7
Ortszeit Luftdruck NN (hPa) Tendenz (hPa in 3 Std.)
Di, 16.07. 7:00 1013 0,0
Di, 16.07. 6:00 1012 0,0
Di, 16.07. 5:00 1012 0,0
Di, 16.07. 4:00 1012 - 0,8
Di, 16.07. 3:00 1012 - 0,9
Di, 16.07. 2:00 1012 0,0
Di, 16.07. 1:00 1013 + 0,5
Ortszeit Schneehöhe (cm)
Di, 16.07. 2:00 -
Mo, 15.07. 20:00 -
Mo, 15.07. 14:00 -
Mo, 15.07. 8:00 0
Mo, 15.07. 2:00 -
So, 14.07. 20:00 -
So, 14.07. 14:00 -
So, 14.07. 8:00 0
Ortszeit Schneehöhe (cm)
Di, 16.07. 7:00 -
Di, 16.07. 6:00 -
Di, 16.07. 5:00 -
Di, 16.07. 4:00 -
Di, 16.07. 3:00 -
Di, 16.07. 2:00 -
Di, 16.07. 1:00 -
Link zu dieser Seite / Seite empfehlen

Das Wetter in ...